createdAt,value
2022-11-28T00:00:05.648Z,1004.56
2022-11-28T00:01:05.643Z,1004.51
2022-11-28T00:02:05.787Z,1004.43
2022-11-28T00:03:05.755Z,1004.45
2022-11-28T00:04:06.944Z,1004.48
2022-11-28T00:05:05.614Z,1004.50
2022-11-28T00:06:05.591Z,1004.51
2022-11-28T00:07:05.563Z,1004.47
2022-11-28T00:08:05.934Z,1004.54
2022-11-28T00:09:05.539Z,1004.52
2022-11-28T00:10:05.561Z,1004.52
2022-11-28T00:11:05.542Z,1004.54
2022-11-28T00:12:05.513Z,1004.55
2022-11-28T00:13:05.493Z,1004.56
2022-11-28T00:14:05.521Z,1004.56
2022-11-28T00:15:05.483Z,1004.52
2022-11-28T00:16:05.620Z,1004.45
2022-11-28T00:17:05.453Z,1004.48
2022-11-28T00:18:05.442Z,1004.47
2022-11-28T00:19:05.433Z,1004.43
2022-11-28T00:20:05.420Z,1004.42
2022-11-28T00:21:05.407Z,1004.38
2022-11-28T00:22:05.423Z,1004.36
2022-11-28T00:23:05.430Z,1004.32
2022-11-28T00:24:05.375Z,1004.32
2022-11-28T00:25:05.359Z,1004.29
2022-11-28T00:26:05.359Z,1004.28
2022-11-28T00:27:05.871Z,1004.26
2022-11-28T00:28:05.370Z,1004.22
2022-11-28T00:29:05.326Z,1004.27
2022-11-28T00:30:05.309Z,1004.24
2022-11-28T00:31:05.289Z,1004.24
2022-11-28T00:32:05.380Z,1004.23
2022-11-28T00:33:05.270Z,1004.22
2022-11-28T00:34:05.297Z,1004.22
2022-11-28T00:35:05.251Z,1004.21
2022-11-28T00:36:05.258Z,1004.19
2022-11-28T00:37:05.251Z,1004.19
2022-11-28T00:38:05.223Z,1004.15
2022-11-28T00:39:05.208Z,1004.19
2022-11-28T00:40:05.240Z,1004.19
2022-11-28T00:41:05.181Z,1004.19
2022-11-28T00:42:05.179Z,1004.21
2022-11-28T00:43:05.161Z,1004.24
2022-11-28T00:44:05.152Z,1004.12
2022-11-28T00:45:05.158Z,1004.04
2022-11-28T00:46:05.238Z,1004.00
2022-11-28T00:47:05.114Z,1003.96
2022-11-28T00:48:05.129Z,1003.92
2022-11-28T00:49:05.113Z,1003.87
2022-11-28T00:50:05.135Z,1003.86
2022-11-28T00:51:05.103Z,1003.92
2022-11-28T00:52:05.460Z,1003.96
2022-11-28T00:53:05.050Z,1003.94
2022-11-28T00:54:05.039Z,1003.96
2022-11-28T00:55:05.026Z,1003.97
2022-11-28T00:56:05.017Z,1003.98
2022-11-28T00:57:05.865Z,1004.01
2022-11-28T00:58:05.052Z,1003.93
2022-11-28T00:59:04.999Z,1003.94
2022-11-28T01:00:04.971Z,1003.91
2022-11-28T01:01:04.995Z,1003.88
2022-11-28T01:02:05.050Z,1003.88
2022-11-28T01:03:04.957Z,1003.89
2022-11-28T01:04:05.403Z,1003.86
2022-11-28T01:05:04.912Z,1003.90
2022-11-28T01:06:04.904Z,1003.88
2022-11-28T01:07:04.888Z,1003.88
2022-11-28T01:08:04.936Z,1003.89
2022-11-28T01:09:04.888Z,1003.94
2022-11-28T01:10:04.902Z,1003.91
2022-11-28T01:11:04.842Z,1003.93
2022-11-28T01:12:04.857Z,1003.89
2022-11-28T01:13:04.824Z,1003.87
2022-11-28T01:14:04.815Z,1003.90
2022-11-28T01:15:04.795Z,1003.83
2022-11-28T01:16:04.849Z,1003.80
2022-11-28T01:17:04.791Z,1003.84
2022-11-28T01:18:04.772Z,1003.83
2022-11-28T01:19:04.833Z,1003.80
2022-11-28T01:20:04.794Z,1003.80
2022-11-28T01:21:04.733Z,1003.82
2022-11-28T01:22:04.750Z,1003.77
2022-11-28T01:23:04.716Z,1003.77
2022-11-28T01:24:04.714Z,1003.77
2022-11-28T01:25:04.697Z,1003.76
2022-11-28T01:26:04.685Z,1003.80
2022-11-28T01:27:04.662Z,1003.77
2022-11-28T01:28:04.707Z,1003.76
2022-11-28T01:29:04.680Z,1003.78
2022-11-28T01:30:04.673Z,1003.73
2022-11-28T01:31:04.735Z,1003.69
2022-11-28T01:32:04.617Z,1003.74
2022-11-28T01:33:04.684Z,1003.74
2022-11-28T01:34:04.619Z,1003.70
2022-11-28T01:35:04.603Z,1003.70
2022-11-28T01:36:04.575Z,1003.68
2022-11-28T01:37:04.630Z,1003.61
2022-11-28T01:38:04.572Z,1003.59
2022-11-28T01:39:04.556Z,1003.58
2022-11-28T01:40:04.575Z,1003.54
2022-11-28T01:41:04.565Z,1003.53
2022-11-28T01:42:04.504Z,1003.56
2022-11-28T01:43:04.524Z,1003.47
2022-11-28T01:44:04.487Z,1003.45
2022-11-28T01:45:04.486Z,1003.43
2022-11-28T01:46:04.543Z,1003.43
2022-11-28T01:47:04.536Z,1003.44
2022-11-28T01:48:04.467Z,1003.44
2022-11-28T01:49:04.450Z,1003.43
2022-11-28T01:50:04.556Z,1003.46
2022-11-28T01:51:04.439Z,1003.43
2022-11-28T01:52:04.464Z,1003.48
2022-11-28T01:53:05.244Z,1003.48
2022-11-28T01:54:04.411Z,1003.48
2022-11-28T01:55:04.362Z,1003.48
2022-11-28T01:56:04.372Z,1003.43
2022-11-28T01:57:05.373Z,1003.45
2022-11-28T01:58:04.405Z,1003.42
2022-11-28T01:59:04.327Z,1003.44
2022-11-28T02:00:04.319Z,1003.44
2022-11-28T02:01:04.340Z,1003.40
2022-11-28T02:02:04.380Z,1003.39
2022-11-28T02:03:04.306Z,1003.36
2022-11-28T02:04:04.259Z,1003.35
2022-11-28T02:05:04.297Z,1003.33
2022-11-28T02:06:04.303Z,1003.31
2022-11-28T02:07:04.232Z,1003.38
2022-11-28T02:08:04.301Z,1003.33
2022-11-28T02:09:04.267Z,1003.34
2022-11-28T02:10:04.208Z,1003.28
2022-11-28T02:11:04.184Z,1003.30
2022-11-28T02:12:04.201Z,1003.28
2022-11-28T02:13:04.159Z,1003.27
2022-11-28T02:14:04.145Z,1003.27
2022-11-28T02:15:04.159Z,1003.27
2022-11-28T02:16:04.167Z,1003.29
2022-11-28T02:17:04.119Z,1003.27
2022-11-28T02:18:04.101Z,1003.28
2022-11-28T02:19:04.137Z,1003.29
2022-11-28T02:20:04.138Z,1003.30
2022-11-28T02:21:04.074Z,1003.31
2022-11-28T02:22:04.099Z,1003.25
2022-11-28T02:23:04.067Z,1003.32
2022-11-28T02:24:04.053Z,1003.30
2022-11-28T02:25:04.055Z,1003.36
2022-11-28T02:26:04.052Z,1003.28
2022-11-28T02:27:04.040Z,1003.31
2022-11-28T02:28:04.032Z,1003.29
2022-11-28T02:29:04.031Z,1003.30
2022-11-28T02:30:03.967Z,1003.33
2022-11-28T02:31:04.087Z,1003.32
2022-11-28T02:32:03.967Z,1003.31
2022-11-28T02:33:03.971Z,1003.30
2022-11-28T02:34:03.943Z,1003.29
2022-11-28T02:35:03.917Z,1003.27
2022-11-28T02:36:03.896Z,1003.26
2022-11-28T02:37:03.964Z,1003.25
2022-11-28T02:38:03.886Z,1003.25
2022-11-28T02:39:03.876Z,1003.22
2022-11-28T02:40:03.860Z,1003.18
2022-11-28T02:41:03.844Z,1003.20
2022-11-28T02:42:03.915Z,1003.20
2022-11-28T02:43:03.854Z,1003.20
2022-11-28T02:44:04.548Z,1003.13
2022-11-28T02:45:03.801Z,1003.18
2022-11-28T02:46:03.793Z,1003.21
2022-11-28T02:47:03.815Z,1003.14
2022-11-28T02:48:03.782Z,1003.10
2022-11-28T02:49:03.830Z,1003.10
2022-11-28T02:50:03.872Z,1003.10
2022-11-28T02:51:03.745Z,1003.06
2022-11-28T02:52:03.752Z,1003.01
2022-11-28T02:53:03.738Z,1003.05
2022-11-28T02:54:03.708Z,1003.00
2022-11-28T02:55:03.740Z,1002.92
2022-11-28T02:56:03.686Z,1002.91
2022-11-28T02:57:03.681Z,1002.88
2022-11-28T02:58:03.656Z,1002.90
2022-11-28T02:59:03.697Z,1002.94
2022-11-28T03:00:03.635Z,1002.92
2022-11-28T03:01:03.738Z,1002.87
2022-11-28T03:02:03.713Z,1002.86
2022-11-28T03:03:03.608Z,1002.85
2022-11-28T03:04:03.596Z,1002.94
2022-11-28T03:05:03.621Z,1002.95
2022-11-28T03:06:03.589Z,1002.98
2022-11-28T03:07:03.589Z,1002.95
2022-11-28T03:08:03.605Z,1002.98
2022-11-28T03:09:03.544Z,1002.97
2022-11-28T03:10:03.525Z,1002.99
2022-11-28T03:11:03.528Z,1003.06
2022-11-28T03:12:03.528Z,1003.06
2022-11-28T03:13:03.505Z,1003.03
2022-11-28T03:14:03.497Z,1003.08
2022-11-28T03:15:03.493Z,1003.05
2022-11-28T03:16:04.372Z,1003.08
2022-11-28T03:17:03.477Z,1003.08
2022-11-28T03:18:03.436Z,1003.14
2022-11-28T03:19:03.431Z,1003.15
2022-11-28T03:20:03.442Z,1003.16
2022-11-28T03:21:03.409Z,1003.17
2022-11-28T03:22:03.426Z,1003.16
2022-11-28T03:23:03.387Z,1003.03
2022-11-28T03:24:03.383Z,1003.01
2022-11-28T03:25:03.366Z,1003.01
2022-11-28T03:26:03.347Z,1003.14
2022-11-28T03:27:03.355Z,1003.20
2022-11-28T03:28:03.372Z,1003.19
2022-11-28T03:29:03.360Z,1003.24
2022-11-28T03:30:03.306Z,1003.21
2022-11-28T03:31:03.407Z,1003.19
2022-11-28T03:32:03.291Z,1003.20
2022-11-28T03:33:03.312Z,1003.16
2022-11-28T03:34:03.259Z,1003.19
2022-11-28T03:35:03.253Z,1003.07
2022-11-28T03:36:03.234Z,1003.10
2022-11-28T03:37:03.270Z,1003.09
2022-11-28T03:38:03.254Z,1003.04
2022-11-28T03:39:03.208Z,1003.06
2022-11-28T03:40:03.217Z,1003.02
2022-11-28T03:41:03.191Z,1003.04
2022-11-28T03:42:03.185Z,1003.07
2022-11-28T03:43:03.192Z,1003.06
2022-11-28T03:44:03.187Z,1003.07
2022-11-28T03:45:03.136Z,1003.06
2022-11-28T03:46:03.167Z,1003.11
2022-11-28T03:47:03.164Z,1003.13
2022-11-28T03:48:03.135Z,1003.16
2022-11-28T03:49:03.090Z,1003.16
2022-11-28T03:50:03.096Z,1003.16
2022-11-28T03:51:03.071Z,1003.17
2022-11-28T03:52:03.069Z,1003.17
2022-11-28T03:53:03.071Z,1003.17
2022-11-28T03:54:03.064Z,1003.21
2022-11-28T03:55:03.031Z,1003.21
2022-11-28T03:56:03.076Z,1003.21
2022-11-28T03:57:03.035Z,1003.17
2022-11-28T03:58:03.022Z,1003.20
2022-11-28T03:59:03.015Z,1003.27
2022-11-28T04:00:02.998Z,1003.23
2022-11-28T04:01:03.051Z,1003.27
2022-11-28T04:02:02.953Z,1003.23
2022-11-28T04:03:03.036Z,1003.25
2022-11-28T04:04:02.931Z,1003.26
2022-11-28T04:05:02.915Z,1003.29
2022-11-28T04:06:02.905Z,1003.25
2022-11-28T04:07:02.896Z,1003.30
2022-11-28T04:08:02.981Z,1003.34
2022-11-28T04:09:02.895Z,1003.37
2022-11-28T04:10:02.869Z,1003.33
2022-11-28T04:11:02.865Z,1003.23
2022-11-28T04:12:02.840Z,1003.20
2022-11-28T04:13:02.830Z,1003.23
2022-11-28T04:14:02.841Z,1003.26
2022-11-28T04:15:02.800Z,1003.29
2022-11-28T04:16:02.875Z,1003.26
2022-11-28T04:17:02.843Z,1003.20
2022-11-28T04:18:02.774Z,1003.20
2022-11-28T04:19:02.782Z,1003.18
2022-11-28T04:20:02.749Z,1003.20
2022-11-28T04:21:02.736Z,1003.24
2022-11-28T04:22:02.733Z,1003.19
2022-11-28T04:23:02.711Z,1003.19
2022-11-28T04:24:02.730Z,1003.27
2022-11-28T04:25:02.692Z,1003.25
2022-11-28T04:26:02.689Z,1003.21
2022-11-28T04:27:02.669Z,1003.25
2022-11-28T04:28:02.660Z,1003.21
2022-11-28T04:29:02.674Z,1003.27
2022-11-28T04:30:02.643Z,1003.25
2022-11-28T04:31:02.636Z,1003.20
2022-11-28T04:32:02.700Z,1003.25
2022-11-28T04:33:02.605Z,1003.20
2022-11-28T04:34:02.617Z,1003.25
2022-11-28T04:35:02.601Z,1003.18
2022-11-28T04:36:02.592Z,1003.20
2022-11-28T04:37:08.335Z,1003.24
2022-11-28T04:38:02.562Z,1003.21
2022-11-28T04:39:02.569Z,1003.26
2022-11-28T04:40:02.551Z,1003.23
2022-11-28T04:41:02.520Z,1003.24
2022-11-28T04:42:02.515Z,1003.20
2022-11-28T04:43:02.497Z,1003.21
2022-11-28T04:44:02.498Z,1003.25
2022-11-28T04:45:02.517Z,1003.21
2022-11-28T04:46:02.509Z,1003.23
2022-11-28T04:47:02.463Z,1003.20
2022-11-28T04:48:02.434Z,1003.16
2022-11-28T04:49:02.484Z,1003.17
2022-11-28T04:50:02.415Z,1003.21
2022-11-28T04:51:02.433Z,1003.21
2022-11-28T04:52:02.403Z,1003.12
2022-11-28T04:53:02.389Z,1003.13
2022-11-28T04:54:02.380Z,1003.13
2022-11-28T04:55:02.374Z,1003.14
2022-11-28T04:56:02.350Z,1003.07
2022-11-28T04:57:02.361Z,1003.06
2022-11-28T04:58:02.329Z,1002.98
2022-11-28T04:59:02.311Z,1003.01
2022-11-28T05:00:02.322Z,1002.97
2022-11-28T05:01:02.378Z,1002.96
2022-11-28T05:02:02.370Z,1002.99
2022-11-28T05:03:02.311Z,1002.95
2022-11-28T05:04:02.266Z,1002.95
2022-11-28T05:05:02.249Z,1002.93
2022-11-28T05:06:02.263Z,1002.93
2022-11-28T05:07:02.225Z,1002.92
2022-11-28T05:08:02.339Z,1002.87
2022-11-28T05:09:02.227Z,1002.90
2022-11-28T05:10:02.196Z,1002.88
2022-11-28T05:11:02.179Z,1002.90
2022-11-28T05:12:02.174Z,1002.89
2022-11-28T05:13:02.156Z,1002.91
2022-11-28T05:14:02.155Z,1002.89
2022-11-28T05:15:02.156Z,1002.94
2022-11-28T05:16:02.163Z,1002.94
2022-11-28T05:17:02.121Z,1002.99
2022-11-28T05:18:02.108Z,1002.98
2022-11-28T05:19:02.089Z,1003.01
2022-11-28T05:20:02.116Z,1003.02
2022-11-28T05:21:02.068Z,1003.03
2022-11-28T05:22:02.068Z,1003.03
2022-11-28T05:23:02.048Z,1003.00
2022-11-28T05:24:02.040Z,1002.99
2022-11-28T05:25:02.073Z,1003.02
2022-11-28T05:26:02.039Z,1003.01
2022-11-28T05:27:02.036Z,1003.08
2022-11-28T05:28:02.008Z,1003.05
2022-11-28T05:29:02.051Z,1003.08
2022-11-28T05:30:01.977Z,1003.07
2022-11-28T05:31:02.024Z,1003.11
2022-11-28T05:32:02.032Z,1003.09
2022-11-28T05:33:01.949Z,1003.09
2022-11-28T05:34:01.929Z,1003.12
2022-11-28T05:35:01.916Z,1003.12
2022-11-28T05:36:01.907Z,1003.11
2022-11-28T05:37:02.012Z,1003.13
2022-11-28T05:38:01.885Z,1003.10
2022-11-28T05:39:01.873Z,1003.09
2022-11-28T05:40:01.887Z,1003.07
2022-11-28T05:41:01.888Z,1003.05
2022-11-28T05:42:01.890Z,1003.10
2022-11-28T05:43:01.863Z,1003.08
2022-11-28T05:44:01.859Z,1003.03
2022-11-28T05:45:01.808Z,1003.09
2022-11-28T05:46:01.868Z,1003.10
2022-11-28T05:47:01.898Z,1003.14
2022-11-28T05:48:01.793Z,1003.17
2022-11-28T05:49:01.872Z,1003.16
2022-11-28T05:50:01.747Z,1003.18
2022-11-28T05:51:01.740Z,1003.18
2022-11-28T05:52:01.724Z,1003.18
2022-11-28T05:53:01.737Z,1003.18
2022-11-28T05:54:01.708Z,1003.19
2022-11-28T05:55:01.758Z,1003.19
2022-11-28T05:56:01.679Z,1003.20
2022-11-28T05:57:01.673Z,1003.22
2022-11-28T05:58:01.684Z,1003.18
2022-11-28T05:59:01.649Z,1003.28
2022-11-28T06:00:01.699Z,1003.22
2022-11-28T06:01:01.626Z,1003.27
2022-11-28T06:02:01.708Z,1003.29
2022-11-28T06:03:01.965Z,1003.29
2022-11-28T06:04:01.673Z,1003.22
2022-11-28T06:05:16.191Z,1003.24
2022-11-28T06:06:01.575Z,1003.27
2022-11-28T06:07:01.589Z,1003.23
2022-11-28T06:08:01.620Z,1003.28
2022-11-28T06:09:01.537Z,1003.29
2022-11-28T06:10:01.520Z,1003.20
2022-11-28T06:11:01.526Z,1003.21
2022-11-28T06:12:01.501Z,1003.29
2022-11-28T06:13:01.516Z,1003.28
2022-11-28T06:14:01.480Z,1003.33
2022-11-28T06:15:01.470Z,1003.28
2022-11-28T06:16:01.612Z,1003.28
2022-11-28T06:17:01.594Z,1003.30
2022-11-28T06:18:01.468Z,1003.26
2022-11-28T06:19:01.451Z,1003.26
2022-11-28T06:20:01.410Z,1003.26
2022-11-28T06:21:01.413Z,1003.24
2022-11-28T06:22:01.384Z,1003.20
2022-11-28T06:23:01.406Z,1003.22
2022-11-28T06:24:01.374Z,1003.26
2022-11-28T06:25:01.361Z,1003.23
2022-11-28T06:26:01.342Z,1003.29
2022-11-28T06:27:01.337Z,1003.22
2022-11-28T06:28:01.343Z,1003.24
2022-11-28T06:29:01.347Z,1003.28
2022-11-28T06:30:01.297Z,1003.26
2022-11-28T06:31:01.291Z,1003.30
2022-11-28T06:32:01.324Z,1003.26
2022-11-28T06:33:01.292Z,1003.18
2022-11-28T06:34:01.271Z,1003.22
2022-11-28T06:35:01.283Z,1003.20
2022-11-28T06:36:01.276Z,1003.22
2022-11-28T06:37:01.223Z,1003.13
2022-11-28T06:38:01.232Z,1003.17
2022-11-28T06:39:01.213Z,1003.22
2022-11-28T06:40:01.193Z,1003.23
2022-11-28T06:41:01.175Z,1003.14
2022-11-28T06:42:01.187Z,1003.18
2022-11-28T06:43:01.180Z,1003.16
2022-11-28T06:44:01.250Z,1003.15
2022-11-28T06:45:01.129Z,1003.17
2022-11-28T06:46:01.171Z,1003.19
2022-11-28T06:47:01.116Z,1003.23
2022-11-28T06:48:01.123Z,1003.25
2022-11-28T06:49:01.085Z,1003.25
2022-11-28T06:50:01.131Z,1003.27
2022-11-28T06:51:01.071Z,1003.31
2022-11-28T06:52:01.059Z,1003.28
2022-11-28T06:53:01.068Z,1003.26
2022-11-28T06:54:01.067Z,1003.29
2022-11-28T06:55:01.026Z,1003.24
2022-11-28T06:56:01.012Z,1003.23
2022-11-28T06:57:00.997Z,1003.21
2022-11-28T06:58:01.020Z,1003.20
2022-11-28T06:59:00.979Z,1003.21
2022-11-28T07:00:01.047Z,1003.19
2022-11-28T07:01:01.028Z,1003.19
2022-11-28T07:02:06.973Z,1003.17
2022-11-28T07:03:00.962Z,1003.17
2022-11-28T07:04:00.927Z,1003.18
2022-11-28T07:05:00.944Z,1003.18
2022-11-28T07:06:00.928Z,1003.15
2022-11-28T07:07:00.948Z,1003.13
2022-11-28T07:08:00.930Z,1003.22
2022-11-28T07:09:00.863Z,1003.25
2022-11-28T07:10:00.860Z,1003.23
2022-11-28T07:11:00.842Z,1003.25
2022-11-28T07:12:00.837Z,1003.27
2022-11-28T07:13:05.209Z,1003.26
2022-11-28T07:14:00.982Z,1003.25
2022-11-28T07:15:00.836Z,1003.29
2022-11-28T07:16:00.850Z,1003.27
2022-11-28T07:17:00.883Z,1003.29
2022-11-28T07:18:00.838Z,1003.26
2022-11-28T07:19:00.756Z,1003.28
2022-11-28T07:20:00.821Z,1003.28
2022-11-28T07:21:00.745Z,1003.28
2022-11-28T07:22:00.726Z,1003.25
2022-11-28T07:23:00.751Z,1003.30
2022-11-28T07:24:00.726Z,1003.27
2022-11-28T07:25:00.694Z,1003.32
2022-11-28T07:26:00.693Z,1003.28
2022-11-28T07:27:00.664Z,1003.31
2022-11-28T07:28:00.685Z,1003.32
2022-11-28T07:29:00.644Z,1003.32
2022-11-28T07:30:00.637Z,1003.32
2022-11-28T07:31:00.620Z,1003.31
2022-11-28T07:32:00.684Z,1003.32
2022-11-28T07:33:00.630Z,1003.29
2022-11-28T07:34:00.591Z,1003.31
2022-11-28T07:35:00.577Z,1003.32
2022-11-28T07:36:00.573Z,1003.31
2022-11-28T07:37:00.554Z,1003.35
2022-11-28T07:38:00.567Z,1003.38
2022-11-28T07:39:00.537Z,1003.38
2022-11-28T07:40:00.522Z,1003.39
2022-11-28T07:41:00.531Z,1003.42
2022-11-28T07:42:00.500Z,1003.41
2022-11-28T07:43:00.516Z,1003.44
2022-11-28T07:44:00.480Z,1003.42
2022-11-28T07:45:00.471Z,1003.43
2022-11-28T07:46:01.675Z,1003.46
2022-11-28T07:47:00.551Z,1003.48
2022-11-28T07:48:00.438Z,1003.45
2022-11-28T07:49:00.433Z,1003.52
2022-11-28T07:50:00.416Z,1003.53
2022-11-28T07:51:00.406Z,1003.52
2022-11-28T07:52:00.386Z,1003.50
2022-11-28T07:53:05.626Z,1003.52
2022-11-28T07:54:00.373Z,1003.46
2022-11-28T07:55:00.360Z,1003.44
2022-11-28T07:56:00.342Z,1003.46
2022-11-28T07:57:15.656Z,1003.46
2022-11-28T07:58:00.370Z,1003.45
2022-11-28T07:59:03.228Z,1003.47
2022-11-28T08:00:00.302Z,1003.44
2022-11-28T08:01:00.290Z,1003.46
2022-11-28T08:02:00.361Z,1003.43
2022-11-28T08:03:00.296Z,1003.44
2022-11-28T08:04:00.306Z,1003.40
2022-11-28T08:05:00.336Z,1003.39
2022-11-28T08:12:08.558Z,1003.44
2022-11-28T08:12:13.485Z,1003.42
2022-11-28T08:13:13.475Z,1003.42
2022-11-28T08:14:13.462Z,1003.42
2022-11-28T08:15:13.454Z,1003.45
2022-11-28T08:16:13.488Z,1003.43
2022-11-28T08:17:13.458Z,1003.45
2022-11-28T08:18:13.435Z,1003.50
2022-11-28T08:19:13.409Z,1003.48
2022-11-28T08:20:13.394Z,1003.50
2022-11-28T08:21:13.394Z,1003.47
2022-11-28T08:22:13.404Z,1003.50
2022-11-28T08:23:13.365Z,1003.50
2022-11-28T08:24:13.346Z,1003.48
2022-11-28T08:25:13.340Z,1003.45
2022-11-28T08:26:13.329Z,1003.46
2022-11-28T08:27:13.349Z,1003.46
2022-11-28T08:28:13.308Z,1003.44
2022-11-28T08:29:13.301Z,1003.42
2022-11-28T08:30:13.281Z,1003.44
2022-11-28T08:31:13.323Z,1003.45
2022-11-28T08:32:13.283Z,1003.45
2022-11-28T08:33:13.255Z,1003.44
2022-11-28T08:34:13.254Z,1003.40
2022-11-28T08:35:13.235Z,1003.43
2022-11-28T08:36:13.218Z,1003.44
2022-11-28T08:37:13.242Z,1003.46
2022-11-28T08:38:13.198Z,1003.44
2022-11-28T08:39:28.540Z,1003.49
2022-11-28T08:40:13.193Z,1003.47
2022-11-28T08:41:13.167Z,1003.49
2022-11-28T08:42:13.181Z,1003.48
2022-11-28T08:43:13.140Z,1003.44
2022-11-28T08:44:13.137Z,1003.43
2022-11-28T08:45:13.143Z,1003.41
2022-11-28T08:46:13.234Z,1003.40
2022-11-28T08:47:13.118Z,1003.36
2022-11-28T08:48:13.089Z,1003.36
2022-11-28T08:49:13.075Z,1003.33
2022-11-28T08:50:13.066Z,1003.33
2022-11-28T08:51:13.053Z,1003.29
2022-11-28T08:52:13.065Z,1003.32
2022-11-28T08:53:18.586Z,1003.34
2022-11-28T08:54:13.031Z,1003.29
2022-11-28T08:55:13.013Z,1003.34
2022-11-28T08:56:13.009Z,1003.31
2022-11-28T08:57:13.016Z,1003.36
2022-11-28T08:58:12.976Z,1003.32
2022-11-28T08:59:12.962Z,1003.35
2022-11-28T09:00:12.963Z,1003.37
2022-11-28T09:01:12.977Z,1003.38
2022-11-28T09:02:12.958Z,1003.36
2022-11-28T09:03:12.916Z,1003.39
2022-11-28T09:04:12.955Z,1003.44
2022-11-28T09:05:12.897Z,1003.45
2022-11-28T09:06:12.888Z,1003.44
2022-11-28T09:07:12.961Z,1003.46
2022-11-28T09:08:12.938Z,1003.46
2022-11-28T09:09:12.851Z,1003.46
2022-11-28T09:10:12.837Z,1003.41
2022-11-28T09:11:12.834Z,1003.44
2022-11-28T09:12:12.841Z,1003.44
2022-11-28T09:13:12.811Z,1003.43
2022-11-28T09:14:12.796Z,1003.45
2022-11-28T09:15:12.788Z,1003.42
2022-11-28T09:16:12.775Z,1003.44
2022-11-28T09:17:12.829Z,1003.50
2022-11-28T09:18:12.751Z,1003.52
2022-11-28T09:19:12.749Z,1003.52
2022-11-28T09:20:12.730Z,1003.49
2022-11-28T09:21:12.724Z,1003.53
2022-11-28T09:22:12.732Z,1003.58
2022-11-28T09:23:12.702Z,1003.56
2022-11-28T09:24:12.685Z,1003.55
2022-11-28T09:25:12.678Z,1003.57
2022-11-28T09:26:12.663Z,1003.55
2022-11-28T09:27:12.702Z,1003.55
2022-11-28T09:28:12.641Z,1003.55
2022-11-28T09:29:12.634Z,1003.55
2022-11-28T09:30:12.617Z,1003.61
2022-11-28T09:31:12.822Z,1003.58
2022-11-28T09:32:12.651Z,1003.60
2022-11-28T09:33:12.592Z,1003.62
2022-11-28T09:34:12.575Z,1003.63
2022-11-28T09:35:12.632Z,1003.62
2022-11-28T09:36:12.554Z,1003.61
2022-11-28T09:37:12.649Z,1003.63
2022-11-28T09:38:12.528Z,1003.63
2022-11-28T09:39:12.536Z,1003.62
2022-11-28T09:40:13.760Z,1003.63
2022-11-28T09:41:12.491Z,1003.61
2022-11-28T09:42:12.513Z,1003.63
2022-11-28T09:43:12.470Z,1003.65
2022-11-28T09:44:12.467Z,1003.65
2022-11-28T09:45:12.451Z,1003.62
2022-11-28T09:46:12.464Z,1003.64
2022-11-28T09:47:12.456Z,1003.63
2022-11-28T09:48:12.424Z,1003.64
2022-11-28T09:49:12.405Z,1003.64
2022-11-28T09:50:12.417Z,1003.64
2022-11-28T09:51:12.442Z,1003.65
2022-11-28T09:52:12.438Z,1003.61
2022-11-28T09:53:12.360Z,1003.65
2022-11-28T09:54:12.358Z,1003.62
2022-11-28T09:55:12.336Z,1003.61
2022-11-28T09:56:12.343Z,1003.63
2022-11-28T09:57:12.342Z,1003.63
2022-11-28T09:58:12.314Z,1003.59
2022-11-28T09:59:12.294Z,1003.62
2022-11-28T10:00:12.288Z,1003.63
2022-11-28T10:01:12.279Z,1003.62
2022-11-28T10:02:12.287Z,1003.66
2022-11-28T10:03:12.337Z,1003.59
2022-11-28T10:04:12.376Z,1003.59
2022-11-28T10:05:12.315Z,1003.60
2022-11-28T10:06:12.228Z,1003.54
2022-11-28T10:07:12.230Z,1003.52
2022-11-28T10:08:12.197Z,1003.59
2022-11-28T10:09:12.186Z,1003.54
2022-11-28T10:10:12.183Z,1003.57
2022-11-28T10:11:12.164Z,1003.60
2022-11-28T10:12:12.184Z,1003.54
2022-11-28T10:13:12.142Z,1003.52
2022-11-28T10:14:12.194Z,1003.55
2022-11-28T10:15:12.118Z,1003.53
2022-11-28T10:16:12.247Z,1003.53
2022-11-28T10:17:12.162Z,1003.60
2022-11-28T10:18:12.089Z,1003.62
2022-11-28T10:19:25.546Z,1003.63
2022-11-28T10:20:12.088Z,1003.60
2022-11-28T10:21:12.049Z,1003.61
2022-11-28T10:22:12.069Z,1003.58
2022-11-28T10:23:12.034Z,1003.58
2022-11-28T10:24:12.032Z,1003.57
2022-11-28T10:25:12.010Z,1003.53
2022-11-28T10:26:12.001Z,1003.51
2022-11-28T10:27:12.012Z,1003.51
2022-11-28T10:28:11.977Z,1003.52
2022-11-28T10:29:11.969Z,1003.46
2022-11-28T10:30:11.997Z,1003.52
2022-11-28T10:31:11.952Z,1003.53
2022-11-28T10:32:11.958Z,1003.46
2022-11-28T10:33:11.917Z,1003.51
2022-11-28T10:34:11.924Z,1003.49
2022-11-28T10:35:11.897Z,1003.46
2022-11-28T10:36:11.889Z,1003.49
2022-11-28T10:37:11.899Z,1003.50
2022-11-28T10:38:11.868Z,1003.54
2022-11-28T10:39:11.856Z,1003.53
2022-11-28T10:40:11.877Z,1003.49
2022-11-28T10:41:11.833Z,1003.49
2022-11-28T10:42:11.860Z,1003.52
2022-11-28T10:43:11.811Z,1003.50
2022-11-28T10:44:14.779Z,1003.53
2022-11-28T10:45:11.797Z,1003.52
2022-11-28T10:46:11.851Z,1003.52
2022-11-28T10:47:11.795Z,1003.52
2022-11-28T10:48:38.012Z,1003.47
2022-11-28T10:49:11.751Z,1003.46
2022-11-28T10:50:11.727Z,1003.47
2022-11-28T10:51:11.720Z,1003.48
2022-11-28T10:52:11.734Z,1003.46
2022-11-28T10:53:11.706Z,1003.51
2022-11-28T10:54:11.687Z,1003.53
2022-11-28T10:55:11.681Z,1003.54
2022-11-28T10:56:11.940Z,1003.51
2022-11-28T10:57:11.720Z,1003.51
2022-11-28T10:58:11.664Z,1003.52
2022-11-28T10:59:11.632Z,1003.52
2022-11-28T11:00:11.613Z,1003.50
2022-11-28T11:01:11.733Z,1003.56
2022-11-28T11:02:11.592Z,1003.51
2022-11-28T11:03:11.618Z,1003.53
2022-11-28T11:04:11.646Z,1003.51
2022-11-28T11:05:11.565Z,1003.54
2022-11-28T11:06:11.551Z,1003.53
2022-11-28T11:07:16.393Z,1003.53
2022-11-28T11:08:11.628Z,1003.58
2022-11-28T11:09:11.522Z,1003.54
2022-11-28T11:10:11.500Z,1003.52
2022-11-28T11:11:11.498Z,1003.52
2022-11-28T11:12:11.479Z,1003.51
2022-11-28T11:13:11.500Z,1003.51
2022-11-28T11:14:11.458Z,1003.53
2022-11-28T11:15:11.456Z,1003.46
2022-11-28T11:16:11.609Z,1003.46
2022-11-28T11:17:11.431Z,1003.44
2022-11-28T11:18:11.447Z,1003.40
2022-11-28T11:19:11.408Z,1003.47
2022-11-28T11:20:11.393Z,1003.43
2022-11-28T11:21:11.385Z,1003.46
2022-11-28T11:22:11.373Z,1003.46
2022-11-28T11:23:11.388Z,1003.46
2022-11-28T11:24:11.349Z,1003.50
2022-11-28T11:25:11.339Z,1003.48
2022-11-28T11:26:11.326Z,1003.51
2022-11-28T11:27:11.321Z,1003.52
2022-11-28T11:28:11.332Z,1003.49
2022-11-28T11:29:11.296Z,1003.51
2022-11-28T11:30:11.285Z,1003.47
2022-11-28T11:31:11.327Z,1003.48
2022-11-28T11:32:11.254Z,1003.49
2022-11-28T11:33:11.276Z,1003.50
2022-11-28T11:34:11.248Z,1003.45
2022-11-28T11:35:11.228Z,1003.47
2022-11-28T11:36:11.213Z,1003.49
2022-11-28T11:37:11.211Z,1003.45
2022-11-28T11:38:11.214Z,1003.46
2022-11-28T11:39:11.178Z,1003.45
2022-11-28T11:40:11.176Z,1003.43
2022-11-28T11:41:11.159Z,1003.43
2022-11-28T11:42:11.152Z,1003.41
2022-11-28T11:43:11.164Z,1003.44
2022-11-28T11:44:11.128Z,1003.46
2022-11-28T11:45:11.112Z,1003.40
2022-11-28T11:46:11.234Z,1003.41
2022-11-28T11:47:11.088Z,1003.48
2022-11-28T11:48:11.104Z,1003.47
2022-11-28T11:49:11.068Z,1003.48
2022-11-28T11:50:11.064Z,1003.51
2022-11-28T11:51:11.049Z,1003.50
2022-11-28T11:52:11.035Z,1003.49
2022-11-28T11:53:11.043Z,1003.52
2022-11-28T11:54:11.014Z,1003.53
2022-11-28T11:55:10.998Z,1003.53
2022-11-28T11:56:10.996Z,1003.53
2022-11-28T11:57:32.024Z,1003.49
2022-11-28T11:58:10.998Z,1003.51
2022-11-28T11:59:10.974Z,1003.48
2022-11-28T12:00:10.947Z,1003.51
2022-11-28T12:01:10.936Z,1003.47
2022-11-28T12:02:10.990Z,1003.49
2022-11-28T12:03:11.014Z,1003.49
2022-11-28T12:04:30.639Z,1003.49
2022-11-28T12:05:10.891Z,1003.50
2022-11-28T12:06:15.105Z,1003.50
2022-11-28T12:07:10.868Z,1003.57
2022-11-28T12:08:10.887Z,1003.53
2022-11-28T12:09:10.845Z,1003.57
2022-11-28T12:10:10.841Z,1003.58